Time;durP1;ratioP1;P1;durP2;ratioP2;P2;SDS_P1;SDS_P2;PMS_P1;PMS_P2;Temp;Humidity;BMP_temperature;BMP_pressure;BME280_temperature;BME280_humidity;BME280_pressure;Samples;Min_cycle;Max_cycle;Signal;HPM_P1;HPM_P2
2022/01/29 00:01:39;;;;;;;33.50;15.90;;;6.70;99.90;;;;;;5052442;28;20098;-72
2022/01/29 00:04:05;;;;;;;35.13;15.77;;;6.70;99.90;;;;;;5052180;28;20029;-72
2022/01/29 00:06:31;;;;;;;33.27;15.00;;;6.60;99.90;;;;;;5052154;28;20021;-72
2022/01/29 00:08:57;;;;;;;31.50;15.57;;;6.60;99.90;;;;;;5052248;28;20029;-72
2022/01/29 00:11:29;;;;;;;31.20;14.73;;;6.60;99.90;;;;;;5034290;28;20036;-72
2022/01/29 00:13:55;;;;;;;33.77;15.80;;;6.70;99.90;;;;;;5051883;28;20025;-72
2022/01/29 00:16:21;;;;;;;34.23;15.73;;;6.70;99.90;;;;;;5052373;28;20112;-72
2022/01/29 00:18:47;;;;;;;35.97;17.17;;;6.60;99.90;;;;;;5051917;28;20029;-72
2022/01/29 00:21:13;;;;;;;28.57;15.40;;;6.60;99.90;;;;;;5052028;28;20539;-72
2022/01/29 00:23:39;;;;;;;34.30;16.73;;;6.60;99.90;;;;;;5051719;28;20052;-72
2022/01/29 00:26:06;;;;;;;38.43;17.43;;;6.60;99.90;;;;;;5051821;28;20110;-72
2022/01/29 00:28:34;;;;;;;34.40;16.53;;;6.60;99.90;;;;;;5051867;28;20398;-72
2022/01/29 00:31:02;;;;;;;36.77;17.13;;;6.60;99.90;;;;;;5034214;28;20110;-72
2022/01/29 00:33:28;;;;;;;36.20;16.33;;;6.60;99.90;;;;;;5033828;28;20474;-72
2022/01/29 00:35:54;;;;;;;35.50;16.50;;;6.70;99.90;;;;;;5051675;28;20035;-72
2022/01/29 00:38:20;;;;;;;37.53;18.20;;;6.70;99.90;;;;;;5051743;28;20429;-72
2022/01/29 00:40:46;;;;;;;37.87;17.80;;;6.70;99.90;;;;;;5033851;28;20032;-72
2022/01/29 00:43:13;;;;;;;36.23;18.53;;;6.70;99.90;;;;;;5033023;28;20032;-72
2022/01/29 00:45:39;;;;;;;35.83;17.60;;;6.70;99.90;;;;;;5033676;28;20044;-72
2022/01/29 00:48:05;;;;;;;39.80;18.77;;;6.70;99.90;;;;;;5051507;28;20033;-72
2022/01/29 00:50:31;;;;;;;32.57;17.53;;;6.70;99.90;;;;;;5051331;28;20029;-72
2022/01/29 00:52:57;;;;;;;37.63;17.57;;;6.70;99.90;;;;;;5033711;28;20033;-72
2022/01/29 00:55:23;;;;;;;36.87;19.00;;;6.70;99.90;;;;;;5051617;28;20029;-72
2022/01/29 00:57:49;;;;;;;37.47;18.73;;;6.70;99.90;;;;;;5051368;28;20029;-72
2022/01/29 01:00:15;;;;;;;41.20;19.73;;;6.70;99.90;;;;;;5051505;28;20040;-72
2022/01/29 01:02:42;;;;;;;40.10;18.33;;;6.70;99.90;;;;;;5051246;28;20024;-72
2022/01/29 01:05:09;;;;;;;41.97;19.93;;;6.70;99.90;;;;;;5050707;28;20028;-72
2022/01/29 01:07:35;;;;;;;45.60;20.67;;;6.80;99.90;;;;;;5051015;28;20116;-72
2022/01/29 01:10:02;;;;;;;42.23;20.67;;;6.70;99.90;;;;;;5051197;28;20366;-73
2022/01/29 01:12:27;;;;;;;43.00;19.83;;;6.70;99.90;;;;;;5050981;28;20055;-72
2022/01/29 01:14:53;;;;;;;44.33;20.80;;;6.70;99.90;;;;;;5050859;28;20418;-72
2022/01/29 01:17:19;;;;;;;43.20;20.13;;;6.70;99.90;;;;;;5051385;28;20028;-72
2022/01/29 01:19:46;;;;;;;41.73;20.80;;;6.80;99.90;;;;;;5050803;28;20048;-73
2022/01/29 01:22:14;;;;;;;45.43;20.33;;;6.80;99.90;;;;;;5050926;28;20481;-73
2022/01/29 01:24:40;;;;;;;40.60;19.17;;;6.80;99.90;;;;;;5050812;28;20056;-72
2022/01/29 01:27:06;;;;;;;45.07;19.50;;;6.80;99.90;;;;;;5050780;28;20390;-72
2022/01/29 01:29:32;;;;;;;44.03;19.37;;;6.80;99.90;;;;;;5050933;28;20021;-72
2022/01/29 01:31:58;;;;;;;42.07;19.40;;;6.80;99.90;;;;;;5050764;28;20090;-72
2022/01/29 01:34:27;;;;;;;40.53;19.27;;;6.80;99.90;;;;;;5050604;28;20501;-72
2022/01/29 01:36:58;;;;;;;44.65;19.67;;;6.80;99.90;;;;;;5032964;28;20366;-72
2022/01/29 01:39:29;;;;;;;44.93;19.73;;;6.80;99.90;;;;;;5050929;28;20041;-72
2022/01/29 01:42:03;;;;;;;38.20;19.07;;;6.70;99.90;;;;;;5050692;28;20041;-72
2022/01/29 01:44:43;;;;;;;40.60;19.30;;;6.70;99.90;;;;;;5050431;28;20485;-72
2022/01/29 01:47:09;;;;;;;45.43;22.00;;;6.80;99.90;;;;;;5050612;28;20112;-72
2022/01/29 01:49:36;;;;;;;54.23;22.53;;;6.80;99.90;;;;;;5050524;28;20025;-73
2022/01/29 01:52:05;;;;;;;51.43;22.77;;;6.80;99.90;;;;;;5050628;28;20032;-73
2022/01/29 01:54:32;;;;;;;44.60;21.40;;;6.80;99.90;;;;;;5054072;28;20056;-72
2022/01/29 01:57:00;;;;;;;44.50;21.40;;;6.80;99.90;;;;;;5036566;28;20079;-72
2022/01/29 01:59:27;;;;;;;45.87;20.93;;;6.90;99.90;;;;;;5036750;28;20029;-73
2022/01/29 02:01:53;;;;;;;40.80;20.07;;;6.90;99.90;;;;;;5054487;28;20078;-72
2022/01/29 02:04:19;;;;;;;40.30;19.77;;;6.80;99.90;;;;;;5036588;28;20037;-72
2022/01/29 02:06:46;;;;;;;44.70;20.97;;;6.80;99.90;;;;;;5054490;28;20029;-72
2022/01/29 02:09:15;;;;;;;42.40;21.43;;;6.90;99.90;;;;;;5036378;28;20032;-72
2022/01/29 02:11:49;;;;;;;41.40;19.53;;;6.90;99.90;;;;;;5054246;28;20056;-73
2022/01/29 02:14:16;;;;;;;39.20;19.63;;;6.90;99.90;;;;;;5054282;28;20385;-73
2022/01/29 02:16:41;;;;;;;43.23;19.90;;;6.80;99.90;;;;;;5054259;28;20111;-73
2022/01/29 02:19:07;;;;;;;37.83;19.83;;;6.80;99.90;;;;;;5054148;28;20029;-73
2022/01/29 02:21:36;;;;;;;41.33;19.20;;;6.80;99.90;;;;;;5054163;28;20540;-73
2022/01/29 02:24:03;;;;;;;40.95;19.02;;;6.90;99.90;;;;;;5036087;28;20116;-73
2022/01/29 02:26:29;;;;;;;38.20;19.20;;;6.80;99.90;;;;;;5054122;28;20428;-73
2022/01/29 02:28:55;;;;;;;40.37;18.87;;;6.80;99.90;;;;;;5054123;28;20491;-73
2022/01/29 02:31:22;;;;;;;39.07;19.17;;;6.80;99.90;;;;;;5053979;28;20102;-73
2022/01/29 02:33:48;;;;;;;38.07;18.47;;;6.80;99.90;;;;;;5053705;28;20501;-73
2022/01/29 02:36:14;;;;;;;41.67;18.60;;;6.80;99.90;;;;;;5036232;28;20040;-73
2022/01/29 02:38:40;;;;;;;40.07;18.70;;;6.80;99.90;;;;;;5053835;28;20366;-73
2022/01/29 02:41:06;;;;;;;44.40;19.23;;;6.80;99.90;;;;;;5036197;28;20039;-73
2022/01/29 02:43:46;;;;;;;36.53;19.13;;;6.80;99.90;;;;;;5053940;28;20044;-73
2022/01/29 02:46:49;;;;;;;38.13;19.30;;;6.80;99.90;;;;;;5036158;28;20033;-73
2022/01/29 02:49:06;;;;;;;39.70;18.57;;;6.80;99.90;;;;;;5049669;28;20036;-73
2022/01/29 02:51:32;;;;;;;40.93;19.27;;;6.80;99.90;;;;;;5053683;28;20108;-73
2022/01/29 02:53:58;;;;;;;40.63;18.67;;;6.70;99.90;;;;;;5035681;28;20517;-73
2022/01/29 02:56:24;;;;;;;35.50;18.73;;;6.80;99.90;;;;;;5053801;28;20040;-72
2022/01/29 02:58:51;;;;;;;40.73;18.67;;;6.80;99.90;;;;;;5054064;28;20060;-73
2022/01/29 03:01:19;;;;;;;41.90;19.20;;;6.80;99.90;;;;;;5053908;28;20033;-73
2022/01/29 03:03:47;;;;;;;36.80;19.17;;;6.80;99.90;;;;;;5035191;28;20366;-72
2022/01/29 03:06:13;;;;;;;38.40;18.50;;;6.80;99.90;;;;;;5052760;28;20036;-72
2022/01/29 03:08:39;;;;;;;40.70;20.00;;;6.80;99.90;;;;;;5053459;28;20512;-72
2022/01/29 03:11:05;;;;;;;41.53;19.50;;;6.80;99.90;;;;;;5053188;28;20559;-72
2022/01/29 03:13:32;;;;;;;42.50;20.40;;;6.80;99.90;;;;;;5053099;28;20055;-72
2022/01/29 03:15:57;;;;;;;38.57;19.10;;;6.80;99.90;;;;;;5053222;28;20029;-72
2022/01/29 03:18:23;;;;;;;37.27;19.77;;;6.80;99.90;;;;;;5053007;28;20593;-72
2022/01/29 03:20:49;;;;;;;35.20;17.73;;;6.80;99.90;;;;;;5053209;28;20048;-72
2022/01/29 03:23:15;;;;;;;37.70;18.30;;;6.80;99.90;;;;;;5053141;28;20486;-72
2022/01/29 03:25:41;;;;;;;37.87;17.87;;;6.70;99.90;;;;;;5053287;28;20354;-73
2022/01/29 03:28:07;;;;;;;36.67;18.03;;;6.80;99.90;;;;;;5053029;28;20021;-73
2022/01/29 03:30:33;;;;;;;40.53;19.33;;;6.80;99.90;;;;;;5053064;28;20024;-73
2022/01/29 03:32:59;;;;;;;36.03;17.20;;;6.80;99.90;;;;;;5052941;28;20021;-73
2022/01/29 03:35:25;;;;;;;41.67;18.20;;;6.90;99.90;;;;;;5052844;28;20182;-72
2022/01/29 03:37:50;;;;;;;35.97;17.60;;;6.90;99.90;;;;;;5053075;28;20062;-72
2022/01/29 03:40:16;;;;;;;34.60;17.70;;;6.80;99.90;;;;;;5035060;28;20029;-73
2022/01/29 03:42:47;;;;;;;35.10;16.57;;;6.80;99.90;;;;;;5052837;28;20103;-72
2022/01/29 03:45:19;;;;;;;33.00;16.97;;;6.80;99.90;;;;;;5052579;28;20037;-73
2022/01/29 03:47:45;;;;;;;32.00;16.47;;;6.80;99.90;;;;;;5052566;28;20478;-72
2022/01/29 03:50:11;;;;;;;34.13;17.33;;;6.80;99.90;;;;;;5052689;28;20029;-73
2022/01/29 03:52:37;;;;;;;32.83;16.53;;;6.80;99.90;;;;;;5052566;28;20021;-72
2022/01/29 03:55:05;;;;;;;31.23;15.83;;;6.80;99.90;;;;;;5052546;28;20025;-73
2022/01/29 03:57:31;;;;;;;32.70;15.63;;;6.80;99.90;;;;;;5052614;28;20235;-73
2022/01/29 03:59:57;;;;;;;31.43;16.00;;;6.80;99.90;;;;;;5052499;28;20041;-73
2022/01/29 04:02:23;;;;;;;26.20;15.60;;;6.80;99.90;;;;;;5034684;28;20029;-72
2022/01/29 04:04:49;;;;;;;28.70;14.93;;;6.80;99.90;;;;;;5052272;28;20078;-72
2022/01/29 04:07:15;;;;;;;29.67;14.87;;;6.90;99.90;;;;;;5052505;28;20028;-72
2022/01/29 04:09:47;;;;;;;29.57;15.13;;;6.90;99.90;;;;;;5052272;28;20068;-73
2022/01/29 04:12:14;;;;;;;31.73;15.77;;;6.90;99.90;;;;;;5034830;28;20032;-73
2022/01/29 04:14:40;;;;;;;27.63;14.87;;;6.90;99.90;;;;;;5051817;28;20474;-72
2022/01/29 04:17:07;;;;;;;27.60;15.13;;;6.90;99.90;;;;;;5052121;28;20478;-73
2022/01/29 04:19:34;;;;;;;32.93;15.20;;;7.00;99.90;;;;;;5034528;28;20039;-73
2022/01/29 04:22:01;;;;;;;27.57;14.70;;;6.90;99.90;;;;;;5052115;28;20067;-73
2022/01/29 04:24:27;;;;;;;29.33;14.40;;;6.90;99.90;;;;;;5034289;28;20025;-73
2022/01/29 04:26:53;;;;;;;32.53;15.07;;;6.90;99.90;;;;;;5052149;28;20024;-73
2022/01/29 04:29:20;;;;;;;29.07;14.50;;;6.90;99.90;;;;;;5051830;28;20025;-72
2022/01/29 04:32:06;;;;;;;29.37;14.73;;;6.90;99.90;;;;;;5052414;28;20028;-72
2022/01/29 04:34:31;;;;;;;31.10;14.63;;;6.90;99.90;;;;;;5033868;28;20048;-72
2022/01/29 04:36:57;;;;;;;27.37;13.83;;;6.90;99.90;;;;;;5051556;28;20032;-72
2022/01/29 04:39:23;;;;;;;29.50;14.77;;;6.90;99.90;;;;;;5052188;28;20113;-72
2022/01/29 04:41:49;;;;;;;29.47;14.33;;;6.90;99.90;;;;;;5051578;28;20509;-72
2022/01/29 04:44:17;;;;;;;28.83;15.03;;;6.90;99.90;;;;;;5051239;28;20041;-72
2022/01/29 04:46:44;;;;;;;29.80;15.37;;;6.90;99.90;;;;;;5051478;28;20051;-72
2022/01/29 04:49:10;;;;;;;26.07;14.03;;;6.90;99.90;;;;;;5051552;28;20029;-72
2022/01/29 04:51:35;;;;;;;30.50;15.43;;;6.90;99.90;;;;;;5033780;28;20117;-73
2022/01/29 04:54:02;;;;;;;32.57;14.83;;;6.90;99.90;;;;;;5051444;28;20119;-73
2022/01/29 04:56:27;;;;;;;26.07;14.17;;;6.90;99.90;;;;;;5051755;28;20032;-73
2022/01/29 04:58:53;;;;;;;28.47;14.37;;;6.80;99.90;;;;;;5033612;28;20040;-73
2022/01/29 05:01:20;;;;;;;25.77;13.50;;;6.80;99.90;;;;;;5051443;28;20040;-73
2022/01/29 05:03:45;;;;;;;27.27;12.70;;;6.90;99.90;;;;;;5051126;28;20032;-72
2022/01/29 05:06:12;;;;;;;27.50;13.50;;;6.90;99.90;;;;;;5033522;28;20037;-73
2022/01/29 05:08:39;;;;;;;25.23;12.17;;;6.90;99.90;;;;;;5051205;28;20025;-73
2022/01/29 05:11:06;;;;;;;22.40;12.37;;;6.90;99.90;;;;;;5051191;28;20082;-73
2022/01/29 05:13:35;;;;;;;24.23;11.93;;;6.90;99.90;;;;;;5033241;28;20040;-73
2022/01/29 05:26:51;;;;;;;18.73;10.43;;;7.00;99.90;;;;;;5033155;28;20405;-73
2022/01/29 05:29:18;;;;;;;18.63;9.67;;;7.10;99.90;;;;;;5050339;28;20090;-73
2022/01/29 05:31:44;;;;;;;18.33;10.13;;;7.00;99.90;;;;;;5050887;28;20029;-73
2022/01/29 05:34:10;;;;;;;18.97;10.47;;;7.00;99.90;;;;;;5050663;28;20094;-73
2022/01/29 05:36:37;;;;;;;18.30;9.77;;;7.00;99.90;;;;;;5050831;28;20033;-73
2022/01/29 05:39:04;;;;;;;16.83;9.10;;;7.00;99.90;;;;;;5050891;28;20029;-73
2022/01/29 05:41:30;;;;;;;17.17;9.17;;;7.00;99.90;;;;;;5050887;28;20051;-73
2022/01/29 05:43:56;;;;;;;17.37;9.03;;;7.10;99.90;;;;;;5050593;28;20090;-73
2022/01/29 05:46:22;;;;;;;15.50;9.10;;;7.10;99.90;;;;;;5050958;28;20032;-72
2022/01/29 05:48:48;;;;;;;14.80;8.80;;;7.10;99.90;;;;;;5032942;28;20466;-73
2022/01/29 05:51:14;;;;;;;17.60;9.70;;;7.10;99.90;;;;;;5050931;28;20064;-73
2022/01/29 05:53:40;;;;;;;19.83;9.50;;;7.10;99.90;;;;;;5050663;28;20033;-73
2022/01/29 05:56:07;;;;;;;16.83;9.53;;;7.10;99.90;;;;;;5032806;28;20040;-73
2022/01/29 05:58:33;;;;;;;18.53;9.33;;;7.10;99.90;;;;;;5050730;28;20033;-73
2022/01/29 06:00:59;;;;;;;16.33;9.10;;;7.20;99.90;;;;;;5033321;28;20032;-73
2022/01/29 06:03:25;;;;;;;17.07;9.33;;;7.10;99.90;;;;;;5050728;28;20036;-73
2022/01/29 06:05:51;;;;;;;18.73;9.27;;;7.20;99.90;;;;;;5050853;28;20032;-72
2022/01/29 06:08:19;;;;;;;18.30;9.70;;;7.20;99.90;;;;;;5032996;28;20474;-72
2022/01/29 06:10:45;;;;;;;17.97;9.83;;;7.20;99.90;;;;;;5033274;28;20029;-72
2022/01/29 06:13:16;;;;;;;17.67;9.07;;;7.20;99.90;;;;;;5050633;28;20040;-73
2022/01/29 06:15:44;;;;;;;16.33;9.13;;;7.20;99.90;;;;;;5032990;28;20045;-73
2022/01/29 06:18:13;;;;;;;17.70;10.40;;;7.20;99.90;;;;;;5032825;28;20412;-73
2022/01/29 06:20:40;;;;;;;18.57;10.77;;;7.20;99.90;;;;;;5033188;28;20306;-73
2022/01/29 06:23:06;;;;;;;19.97;10.90;;;7.30;99.90;;;;;;5050734;28;20033;-72
2022/01/29 06:25:32;;;;;;;19.60;11.00;;;7.30;99.90;;;;;;5050486;28;20029;-73
2022/01/29 06:27:58;;;;;;;18.17;10.63;;;7.30;99.90;;;;;;5050276;28;20033;-72
2022/01/29 06:30:24;;;;;;;20.10;10.83;;;7.30;99.90;;;;;;5032920;28;20029;-74
2022/01/29 06:32:50;;;;;;;18.87;10.53;;;7.30;99.90;;;;;;5050568;28;20061;-73
2022/01/29 06:35:16;;;;;;;19.57;11.40;;;7.30;99.90;;;;;;5050567;28;20275;-73
2022/01/29 06:37:42;;;;;;;20.30;11.13;;;7.30;99.90;;;;;;5050609;28;20063;-73
2022/01/29 06:40:09;;;;;;;20.13;11.43;;;7.20;99.90;;;;;;5051817;28;20033;-72
2022/01/29 06:42:35;;;;;;;20.57;11.73;;;7.20;99.90;;;;;;5019975;28;20029;-72
2022/01/29 06:45:02;;;;;;;20.87;11.17;;;7.30;99.90;;;;;;5036232;28;20513;-73
2022/01/29 06:47:27;;;;;;;21.20;11.37;;;7.30;99.90;;;;;;5054110;28;20091;-73
2022/01/29 06:49:53;;;;;;;20.33;12.03;;;7.30;99.90;;;;;;5036359;28;20033;-73
2022/01/29 06:52:19;;;;;;;21.50;12.13;;;7.30;99.90;;;;;;5054321;28;20107;-73
2022/01/29 06:54:45;;;;;;;20.87;11.73;;;7.40;99.90;;;;;;5036388;28;20043;-73
2022/01/29 06:57:11;;;;;;;22.50;12.53;;;7.40;99.90;;;;;;5053884;28;20033;-73
2022/01/29 06:59:37;;;;;;;20.37;12.23;;;7.40;99.90;;;;;;5036318;28;20036;-73
2022/01/29 07:02:03;;;;;;;22.50;12.70;;;7.40;99.90;;;;;;5054136;28;20033;-73
2022/01/29 07:04:29;;;;;;;22.27;12.97;;;7.40;99.90;;;;;;5053811;28;20124;-73
2022/01/29 07:06:55;;;;;;;21.40;13.13;;;7.40;99.90;;;;;;5054017;28;20104;-73
2022/01/29 07:09:21;;;;;;;25.27;13.97;;;7.40;99.90;;;;;;5053982;28;20032;-73
2022/01/29 07:11:53;;;;;;;23.53;13.50;;;7.40;99.90;;;;;;5053776;28;20037;-73
2022/01/29 07:14:19;;;;;;;25.27;14.23;;;7.50;99.90;;;;;;5035804;28;20029;-72
2022/01/29 07:16:45;;;;;;;23.97;13.03;;;7.50;99.90;;;;;;5053931;28;20029;-72
2022/01/29 07:19:11;;;;;;;23.57;13.43;;;7.50;99.90;;;;;;5053503;28;20461;-72
2022/01/29 07:21:38;;;;;;;26.23;15.17;;;7.50;99.90;;;;;;5035665;28;20040;-72
2022/01/29 07:24:04;;;;;;;27.03;16.03;;;7.50;99.90;;;;;;5035756;28;20036;-72
2022/01/29 07:26:31;;;;;;;28.30;16.87;;;7.50;99.90;;;;;;5053439;28;20029;-72
2022/01/29 07:28:57;;;;;;;29.17;16.50;;;7.50;99.90;;;;;;5035838;28;20395;-72
2022/01/29 07:31:23;;;;;;;27.83;16.30;;;7.50;99.90;;;;;;5053469;28;20393;-72
2022/01/29 07:33:50;;;;;;;32.77;17.27;;;7.50;99.90;;;;;;5053146;28;20040;-72
2022/01/29 07:36:16;;;;;;;30.10;15.63;;;7.60;99.90;;;;;;5018981;28;20037;-72
2022/01/29 07:38:42;;;;;;;27.23;16.30;;;7.50;99.90;;;;;;5035590;28;20112;-72
2022/01/29 07:41:09;;;;;;;29.63;15.90;;;7.50;99.90;;;;;;5035438;28;20490;-72
2022/01/29 07:43:35;;;;;;;28.80;16.27;;;7.60;99.90;;;;;;5053008;28;20029;-72
2022/01/29 07:46:00;;;;;;;27.83;15.80;;;7.60;99.90;;;;;;5053216;28;20036;-72
2022/01/29 07:48:26;;;;;;;26.50;16.60;;;7.60;99.90;;;;;;5053274;28;20017;-72
2022/01/29 07:50:53;;;;;;;28.17;16.57;;;7.60;99.90;;;;;;5052956;28;20025;-72
2022/01/29 07:53:19;;;;;;;30.07;16.40;;;7.60;99.90;;;;;;5035075;28;20029;-72
2022/01/29 07:55:45;;;;;;;28.43;16.17;;;7.70;99.90;;;;;;5052881;28;20041;-72
2022/01/29 07:58:11;;;;;;;29.73;16.07;;;7.60;99.90;;;;;;5035298;28;20112;-72
2022/01/29 08:00:37;;;;;;;29.47;17.00;;;7.60;99.90;;;;;;5035373;28;20128;-72
2022/01/29 08:03:04;;;;;;;27.60;16.77;;;7.60;99.90;;;;;;5052909;28;20045;-72
2022/01/29 08:05:30;;;;;;;25.60;15.77;;;7.60;99.90;;;;;;5052853;28;20032;-72
2022/01/29 08:07:56;;;;;;;28.10;16.00;;;7.70;99.90;;;;;;5052838;28;20032;-72
2022/01/29 08:10:22;;;;;;;29.17;15.73;;;7.70;99.90;;;;;;5052818;28;20029;-72
2022/01/29 08:12:48;;;;;;;25.13;15.03;;;7.70;99.90;;;;;;5052618;28;20078;-72
2022/01/29 08:15:13;;;;;;;28.53;16.13;;;7.70;99.90;;;;;;5052662;28;20436;-72
2022/01/29 08:17:39;;;;;;;25.17;15.27;;;7.70;99.90;;;;;;5052648;28;20470;-72
2022/01/29 08:20:06;;;;;;;24.80;14.67;;;7.70;99.90;;;;;;5052667;28;20111;-72
2022/01/29 08:22:32;;;;;;;23.73;14.47;;;7.70;99.90;;;;;;5052473;28;20032;-72
2022/01/29 08:24:59;;;;;;;21.83;13.80;;;7.80;99.90;;;;;;5052305;28;20037;-72
2022/01/29 08:27:25;;;;;;;23.47;13.57;;;7.80;99.90;;;;;;5052355;28;20033;-72
2022/01/29 08:29:51;;;;;;;22.33;12.93;;;7.80;99.90;;;;;;5052441;28;20108;-72
2022/01/29 08:32:17;;;;;;;23.23;13.43;;;7.80;99.90;;;;;;5052436;28;20057;-72
2022/01/29 08:34:46;;;;;;;22.17;13.93;;;7.90;99.90;;;;;;5052392;28;20099;-72
2022/01/29 08:37:12;;;;;;;23.63;14.52;;;7.90;99.90;;;;;;5034634;28;20087;-72
2022/01/29 08:39:39;;;;;;;23.77;14.30;;;7.90;99.90;;;;;;5053022;28;20443;-72
2022/01/29 08:42:05;;;;;;;23.23;13.93;;;7.90;99.90;;;;;;5018165;28;20540;-72
2022/01/29 08:44:31;;;;;;;24.33;15.27;;;7.90;99.90;;;;;;5051821;28;20090;-72
2022/01/29 08:46:57;;;;;;;23.90;14.53;;;7.90;99.90;;;;;;5052059;28;20025;-72
2022/01/29 08:49:23;;;;;;;24.87;13.93;;;8.00;99.90;;;;;;5052007;28;20028;-72
2022/01/29 08:51:49;;;;;;;24.03;14.63;;;7.90;99.90;;;;;;5051913;28;20028;-72
2022/01/29 08:54:15;;;;;;;25.77;14.70;;;7.90;99.90;;;;;;5051724;28;20049;-72
2022/01/29 08:56:41;;;;;;;23.67;14.87;;;7.90;99.90;;;;;;5052187;28;20056;-72
2022/01/29 08:59:07;;;;;;;23.87;14.50;;;7.90;99.90;;;;;;5052065;28;20021;-72
2022/01/29 09:01:32;;;;;;;23.57;14.47;;;7.90;99.90;;;;;;5051982;28;20064;-72
2022/01/29 09:03:59;;;;;;;22.93;15.00;;;7.90;99.90;;;;;;5050889;28;20029;-72
2022/01/29 09:06:25;;;;;;;22.80;14.13;;;7.90;99.90;;;;;;5051721;28;20032;-72
2022/01/29 09:08:51;;;;;;;24.30;14.53;;;7.90;99.90;;;;;;5051617;28;20489;-72
2022/01/29 09:11:19;;;;;;;25.80;15.23;;;7.90;99.90;;;;;;5051640;28;20029;-72
2022/01/29 09:13:45;;;;;;;22.60;14.57;;;7.90;99.90;;;;;;5051645;28;20056;-72
2022/01/29 09:16:11;;;;;;;22.00;14.20;;;7.90;99.90;;;;;;5051702;28;20067;-72
2022/01/29 09:18:37;;;;;;;21.50;13.97;;;8.00;99.90;;;;;;5051696;28;20024;-72
2022/01/29 09:21:04;;;;;;;20.97;13.63;;;8.00;99.90;;;;;;5033833;28;20025;-72
2022/01/29 09:23:30;;;;;;;22.03;13.77;;;8.00;99.90;;;;;;5051502;28;20025;-72
2022/01/29 09:25:55;;;;;;;23.30;14.07;;;8.00;99.90;;;;;;5051291;28;20032;-72
2022/01/29 09:28:22;;;;;;;22.23;14.17;;;8.00;99.90;;;;;;5051338;28;20033;-72
2022/01/29 09:30:49;;;;;;;19.47;13.37;;;8.10;99.90;;;;;;5051525;28;20029;-72
2022/01/29 09:33:17;;;;;;;20.97;13.43;;;8.10;99.90;;;;;;5051172;28;20029;-72
2022/01/29 09:35:43;;;;;;;21.57;13.60;;;8.10;99.90;;;;;;5051311;28;20041;-72
2022/01/29 09:38:11;;;;;;;20.67;13.13;;;8.10;99.90;;;;;;5051291;28;20033;-72
2022/01/29 09:40:40;;;;;;;20.40;13.83;;;8.10;99.90;;;;;;5033616;28;20036;-72
2022/01/29 09:43:08;;;;;;;20.20;13.82;;;8.20;99.90;;;;;;5051162;28;20040;-72
2022/01/29 09:45:35;;;;;;;20.45;14.20;;;8.20;99.90;;;;;;5051028;28;20073;-72
2022/01/29 09:48:04;;;;;;;21.60;13.70;;;8.20;99.90;;;;;;5051093;28;20018;-72
2022/01/29 09:50:35;;;;;;;19.67;13.27;;;8.20;99.90;;;;;;5050887;28;20539;-72
2022/01/29 09:53:02;;;;;;;20.07;13.40;;;8.30;99.90;;;;;;5033187;28;20036;-72
2022/01/29 09:55:29;;;;;;;19.90;13.03;;;8.30;99.90;;;;;;5051065;28;20025;-72
2022/01/29 09:57:56;;;;;;;21.73;14.30;;;8.30;99.90;;;;;;5033272;28;20029;-72
2022/01/29 10:00:22;;;;;;;20.87;13.37;;;8.40;99.90;;;;;;5051111;28;20115;-72
2022/01/29 10:03:16;;;;;;;20.23;13.07;;;8.40;99.90;;;;;;5051025;28;20033;-72
2022/01/29 10:05:44;;;;;;;21.67;12.67;;;8.40;99.90;;;;;;5048542;28;20076;-72
2022/01/29 10:08:10;;;;;;;17.77;12.33;;;8.40;99.90;;;;;;5050660;28;20397;-72
2022/01/29 10:10:42;;;;;;;22.03;13.33;;;8.40;99.90;;;;;;5051175;28;20108;-72
2022/01/29 10:13:23;;;;;;;20.53;14.00;;;8.40;99.90;;;;;;5033157;28;20316;-72
2022/01/29 10:15:52;;;;;;;18.73;12.40;;;8.40;99.90;;;;;;5054976;28;20057;-72
2022/01/29 10:18:22;;;;;;;19.50;12.30;;;8.50;99.90;;;;;;5020307;28;20040;-72
2022/01/29 10:20:50;;;;;;;21.60;14.10;;;8.50;99.90;;;;;;5054922;28;20033;-72
2022/01/29 10:23:16;;;;;;;18.73;12.63;;;8.50;99.90;;;;;;5054704;28;20083;-72
2022/01/29 10:25:44;;;;;;;22.23;13.27;;;8.60;99.90;;;;;;5036726;28;20037;-72
2022/01/29 10:28:15;;;;;;;18.23;12.63;;;8.60;99.90;;;;;;5054630;28;20543;-72
2022/01/29 10:30:51;;;;;;;18.83;13.47;;;8.60;99.90;;;;;;5037098;28;20049;-72
2022/01/29 10:33:30;;;;;;;19.53;13.03;;;8.60;99.90;;;;;;5054586;28;20094;-72
2022/01/29 10:36:03;;;;;;;19.73;12.17;;;8.60;99.90;;;;;;5054491;28;20033;-72
2022/01/29 10:38:46;;;;;;;19.17;12.37;;;8.70;99.90;;;;;;5054338;28;20474;-72
2022/01/29 10:41:16;;;;;;;17.83;11.50;;;8.70;99.90;;;;;;5054579;28;20025;-72
2022/01/29 10:44:13;;;;;;;17.77;11.27;;;8.70;99.90;;;;;;5054208;28;20494;-72
2022/01/29 10:46:51;;;;;;;20.63;12.20;;;8.70;99.90;;;;;;5036553;28;20047;-72
2022/01/29 10:49:24;;;;;;;18.63;12.43;;;8.70;99.90;;;;;;5054086;28;20025;-72
2022/01/29 10:52:05;;;;;;;18.73;13.13;;;8.70;99.90;;;;;;5054198;28;20412;-72
2022/01/29 10:54:33;;;;;;;20.70;13.03;;;8.80;99.90;;;;;;5036268;28;20486;-72
2022/01/29 10:57:05;;;;;;;20.53;13.10;;;8.80;99.90;;;;;;5054104;28;20083;-72
2022/01/29 10:59:36;;;;;;;19.80;13.37;;;8.70;99.90;;;;;;5054115;28;20072;-72
2022/01/29 11:02:08;;;;;;;21.00;13.70;;;8.70;99.90;;;;;;5036250;28;20044;-72
2022/01/29 11:04:36;;;;;;;19.83;13.30;;;8.70;99.90;;;;;;5035762;28;20059;-72
2022/01/29 11:07:06;;;;;;;22.43;14.17;;;8.80;99.90;;;;;;5035856;28;20441;-72
2022/01/29 11:09:33;;;;;;;18.27;13.10;;;8.80;99.90;;;;;;5053733;28;20116;-72
2022/01/29 11:12:03;;;;;;;21.60;14.00;;;8.70;99.90;;;;;;5054030;28;20393;-72
2022/01/29 11:14:31;;;;;;;18.03;12.67;;;8.70;99.90;;;;;;5054017;28;20025;-72
2022/01/29 11:16:59;;;;;;;17.43;12.67;;;8.80;99.90;;;;;;5053921;28;20032;-72
2022/01/29 11:19:25;;;;;;;21.33;12.57;;;8.80;99.90;;;;;;5053826;28;20097;-72
2022/01/29 11:21:54;;;;;;;18.93;12.03;;;8.80;99.90;;;;;;5053420;28;20498;-72
2022/01/29 11:24:23;;;;;;;17.08;10.70;;;8.70;99.90;;;;;;5053237;28;20386;-72
2022/01/29 11:26:50;;;;;;;16.35;10.68;;;8.80;99.90;;;;;;5034773;28;20033;-72
2022/01/29 11:29:33;;;;;;;17.30;11.17;;;8.70;99.90;;;;;;5053352;28;20060;-72
2022/01/29 11:32:21;;;;;;;16.77;10.30;;;8.70;99.90;;;;;;5053336;28;20021;-72
2022/01/29 11:34:59;;;;;;;16.40;10.27;;;8.80;99.90;;;;;;5053280;28;20029;-72
2022/01/29 11:37:46;;;;;;;16.37;10.03;;;8.80;99.90;;;;;;5053444;28;20029;-72
2022/01/29 11:40:18;;;;;;;13.93;9.17;;;8.70;99.90;;;;;;5053369;28;20071;-72
2022/01/29 11:43:07;;;;;;;15.80;10.30;;;8.80;99.90;;;;;;5053174;28;20091;-72
2022/01/29 11:45:42;;;;;;;16.50;10.73;;;8.70;99.90;;;;;;5047981;23;20045;-69
2022/01/29 11:51:11;;;;;;;15.33;9.63;;;8.80;99.90;;;;;;5053394;28;20021;-70
2022/01/29 11:53:49;;;;;;;12.80;9.03;;;8.80;99.90;;;;;;5053133;28;20104;-70
2022/01/29 11:56:35;;;;;;;11.73;7.87;;;8.70;99.90;;;;;;5053193;28;20473;-69
2022/01/29 11:59:19;;;;;;;12.47;8.20;;;8.80;99.90;;;;;;5053117;28;20040;-69
2022/01/29 12:02:01;;;;;;;10.10;7.33;;;8.90;99.90;;;;;;5053094;28;20025;-69
2022/01/29 12:04:49;;;;;;;8.73;6.17;;;9.00;99.90;;;;;;5053196;28;20029;-70
2022/01/29 12:07:27;;;;;;;10.13;7.27;;;9.10;99.90;;;;;;5052841;28;20033;-70
2022/01/29 12:10:05;;;;;;;11.67;7.40;;;9.10;99.90;;;;;;5052709;28;20023;-70
2022/01/29 12:12:45;;;;;;;10.13;6.90;;;9.10;99.90;;;;;;5052766;28;20104;-70
2022/01/29 12:15:11;;;;;;;8.80;6.63;;;9.10;99.90;;;;;;5034793;28;20039;-70
2022/01/29 12:17:42;;;;;;;9.30;6.83;;;9.10;99.90;;;;;;5052498;28;20107;-70
2022/01/29 12:20:10;;;;;;;12.23;7.23;;;9.10;99.90;;;;;;5052658;28;20029;-70
2022/01/29 12:22:37;;;;;;;10.23;6.87;;;9.10;99.90;;;;;;5052484;28;20029;-70
2022/01/29 12:25:09;;;;;;;8.43;5.80;;;9.10;99.90;;;;;;5052418;28;20025;-70
2022/01/29 12:27:43;;;;;;;9.03;6.40;;;9.20;99.90;;;;;;5052242;28;20048;-69
2022/01/29 12:30:12;;;;;;;8.27;5.83;;;9.20;99.90;;;;;;5052392;28;20436;-70
2022/01/29 12:32:38;;;;;;;6.53;5.40;;;9.20;99.90;;;;;;5052367;28;20090;-70
2022/01/29 12:35:05;;;;;;;8.00;5.60;;;9.30;99.90;;;;;;5052131;28;20103;-70
2022/01/29 12:37:31;;;;;;;8.27;5.67;;;9.30;99.90;;;;;;5052111;28;20042;-70
2022/01/29 12:40:18;;;;;;;8.73;6.10;;;9.40;99.90;;;;;;5052158;28;20051;-70
2022/01/29 12:42:54;;;;;;;7.80;5.50;;;9.50;99.90;;;;;;5051865;28;20048;-70
2022/01/29 12:45:22;;;;;;;8.83;5.37;;;9.50;99.90;;;;;;5051695;28;20501;-70
2022/01/29 12:47:48;;;;;;;8.87;5.27;;;9.50;99.90;;;;;;5051922;28;20025;-70
2022/01/29 12:50:21;;;;;;;9.10;5.23;;;9.50;99.90;;;;;;5052233;28;20037;-69
2022/01/29 12:52:48;;;;;;;9.93;5.97;;;9.60;99.90;;;;;;5051982;28;20508;-70
2022/01/29 12:55:14;;;;;;;8.50;5.10;;;9.60;99.90;;;;;;5051827;28;20113;-70
2022/01/29 12:57:41;;;;;;;7.00;4.80;;;9.50;99.90;;;;;;5051897;28;20083;-69